createdAt,value
2019-05-17T00:03:09.273Z,13.37
2019-05-17T00:07:16.703Z,13.35
2019-05-17T00:11:22.523Z,13.11
2019-05-17T00:15:28.257Z,13.03
2019-05-17T00:19:33.962Z,13.19
2019-05-17T00:23:40.632Z,13.21
2019-05-17T00:27:47.431Z,13.10
2019-05-17T00:31:53.704Z,13.11
2019-05-17T00:35:59.397Z,13.13
2019-05-17T00:40:07.694Z,13.19
2019-05-17T00:44:13.371Z,13.09
2019-05-17T00:48:19.070Z,13.11
2019-05-17T00:52:27.164Z,13.22
2019-05-17T00:56:32.119Z,13.23
2019-05-17T01:00:38.848Z,12.96
2019-05-17T01:04:44.535Z,12.91
2019-05-17T01:09:01.030Z,13.07
2019-05-17T01:12:57.706Z,13.02
2019-05-17T01:17:03.495Z,12.92
2019-05-17T01:21:09.331Z,12.81
2019-05-17T01:25:17.216Z,12.63
2019-05-17T01:29:22.635Z,12.63
2019-05-17T01:33:28.492Z,12.56
2019-05-17T01:37:36.711Z,12.40
2019-05-17T01:41:41.556Z,12.33
2019-05-17T01:45:48.059Z,12.28
2019-05-17T01:49:53.921Z,12.17
2019-05-17T01:53:59.596Z,12.16
2019-05-17T01:58:07.412Z,12.17
2019-05-17T02:02:16.312Z,12.19
2019-05-17T02:06:21.727Z,12.25
2019-05-17T02:10:27.413Z,12.28
2019-05-17T02:14:33.082Z,12.15
2019-05-17T02:18:38.788Z,12.23
2019-05-17T02:22:47.082Z,12.20
2019-05-17T02:26:51.925Z,12.23
2019-05-17T02:30:57.945Z,12.26
2019-05-17T02:35:04.446Z,12.32
2019-05-17T02:39:13.132Z,12.41
2019-05-17T02:43:17.612Z,12.29
2019-05-17T02:47:23.292Z,12.05
2019-05-17T02:51:32.117Z,12.12
2019-05-17T02:55:36.423Z,12.27
2019-05-17T02:59:43.316Z,12.03
2019-05-17T03:03:49.145Z,11.95
2019-05-17T03:07:54.815Z,11.89
2019-05-17T03:12:03.290Z,12.00
2019-05-17T03:16:07.903Z,12.08
2019-05-17T03:20:15.314Z,12.00
2019-05-17T03:24:22.631Z,11.76
2019-05-17T03:28:28.538Z,11.62
2019-05-17T03:32:36.477Z,11.60
2019-05-17T03:36:46.966Z,11.62
2019-05-17T03:41:18.463Z,11.72
2019-05-17T03:45:02.631Z,11.67
2019-05-17T03:49:06.880Z,11.54
2019-05-17T03:53:13.284Z,11.58
2019-05-17T03:57:19.119Z,11.58
2019-05-17T04:01:24.894Z,11.54
2019-05-17T04:05:33.300Z,11.71
2019-05-17T04:09:38.050Z,11.92
2019-05-17T04:13:43.724Z,11.71
2019-05-17T04:17:52.690Z,11.64
2019-05-17T04:21:56.790Z,11.89
2019-05-17T04:26:04.339Z,12.13
2019-05-17T04:30:12.587Z,12.13
2019-05-17T04:34:18.050Z,11.90
2019-05-17T04:38:24.962Z,11.72
2019-05-17T04:42:33.162Z,11.56
2019-05-17T04:46:43.063Z,11.62
2019-05-17T04:50:48.788Z,11.88
2019-05-17T04:54:54.487Z,12.24
2019-05-17T04:59:03.246Z,12.54
2019-05-17T05:03:07.864Z,12.47
2019-05-17T05:07:13.933Z,12.44
2019-05-17T05:11:19.636Z,12.65
2019-05-17T05:15:44.472Z,12.83
2019-05-17T05:19:52.971Z,12.87
2019-05-17T05:23:57.864Z,12.80
2019-05-17T05:28:04.606Z,12.86
2019-05-17T05:32:11.805Z,12.91
2019-05-17T05:36:17.587Z,13.09
2019-05-17T05:40:23.257Z,13.13
2019-05-17T05:44:28.959Z,13.08
2019-05-17T05:48:34.637Z,13.17
2019-05-17T05:52:42.409Z,13.29
2019-05-17T05:56:47.828Z,13.48
2019-05-17T06:00:53.641Z,13.70
2019-05-17T06:05:01.751Z,13.87
2019-05-17T06:09:11.836Z,14.12
2019-05-17T06:13:16.961Z,14.35
2019-05-17T06:17:22.643Z,14.38
2019-05-17T06:21:29.020Z,14.49
2019-05-17T06:25:34.704Z,14.62
2019-05-17T06:29:41.506Z,14.77
2019-05-17T06:33:47.410Z,14.88
2019-05-17T06:37:53.612Z,15.14
2019-05-17T06:41:59.368Z,15.20
2019-05-17T06:46:05.179Z,15.31
2019-05-17T06:50:13.929Z,15.43
2019-05-17T06:54:18.818Z,15.55
2019-05-17T06:58:24.519Z,15.57
2019-05-17T07:02:30.816Z,15.81
2019-05-17T07:06:36.933Z,16.24
2019-05-17T07:10:42.703Z,16.49
2019-05-17T07:14:50.561Z,16.77
2019-05-17T07:18:55.795Z,17.26
2019-05-17T07:23:01.472Z,17.61
2019-05-17T07:27:07.225Z,18.05
2019-05-17T07:31:12.922Z,18.35
2019-05-17T07:35:19.800Z,18.62
2019-05-17T07:39:25.503Z,18.86
2019-05-17T07:43:31.278Z,18.97
2019-05-17T07:47:36.959Z,19.21
2019-05-17T07:51:42.644Z,19.55
2019-05-17T07:55:50.589Z,19.80
2019-05-17T07:59:55.818Z,20.02
2019-05-17T08:04:01.921Z,20.27
2019-05-17T08:08:09.655Z,20.70
2019-05-17T08:12:15.181Z,20.89
2019-05-17T08:16:20.903Z,21.24
2019-05-17T08:20:29.836Z,21.14
2019-05-17T08:24:35.109Z,21.54
2019-05-17T08:28:40.825Z,21.78
2019-05-17T08:32:46.607Z,21.91
2019-05-17T08:36:52.299Z,21.56
2019-05-17T08:41:00.526Z,22.12
2019-05-17T08:45:09.528Z,22.60
2019-05-17T08:49:14.855Z,23.02
2019-05-17T08:53:20.515Z,23.22
2019-05-17T08:57:26.513Z,23.81
2019-05-17T09:01:32.204Z,24.22
2019-05-17T09:05:38.043Z,24.06
2019-05-17T09:09:44.271Z,24.63
2019-05-17T09:13:57.907Z,25.02
2019-05-17T09:17:57.327Z,25.19
2019-05-17T09:22:04.069Z,25.34
2019-05-17T09:26:10.133Z,25.81
2019-05-17T09:30:16.435Z,26.14
2019-05-17T09:34:22.105Z,26.58
2019-05-17T09:38:29.556Z,26.80
2019-05-17T09:42:35.411Z,27.13
2019-05-17T09:46:41.088Z,27.90
2019-05-17T09:50:46.783Z,28.32
2019-05-17T09:54:52.443Z,28.21
2019-05-17T09:59:00.233Z,28.15
2019-05-17T10:03:05.593Z,28.01
2019-05-17T10:07:11.324Z,28.22
2019-05-17T10:11:20.092Z,28.91
2019-05-17T10:15:25.556Z,29.01
2019-05-17T10:19:31.756Z,28.80
2019-05-17T10:23:37.420Z,28.92
2019-05-17T10:27:43.108Z,29.50
2019-05-17T10:31:50.466Z,30.20
2019-05-17T10:35:56.279Z,30.88
2019-05-17T10:40:11.522Z,31.24
2019-05-17T10:44:19.825Z,31.78
2019-05-17T10:48:24.835Z,28.79
2019-05-17T10:52:30.510Z,30.51
2019-05-17T10:56:36.567Z,29.66
2019-05-17T11:00:42.397Z,28.64
2019-05-17T11:04:50.386Z,30.00
2019-05-17T11:08:55.517Z,31.71
2019-05-17T11:13:01.308Z,32.58
2019-05-17T11:17:07.015Z,32.71
2019-05-17T11:21:13.016Z,33.55
2019-05-17T11:25:19.156Z,33.92
2019-05-17T11:29:24.848Z,33.37
2019-05-17T11:33:30.515Z,33.34
2019-05-17T11:37:36.214Z,33.72
2019-05-17T11:41:41.895Z,33.90
2019-05-17T11:45:47.745Z,33.78
2019-05-17T11:49:53.489Z,34.62
2019-05-17T11:53:59.148Z,34.56
2019-05-17T11:58:05.495Z,34.52
2019-05-17T12:02:11.192Z,34.48
2019-05-17T12:06:16.941Z,34.95
2019-05-17T12:10:22.821Z,34.84
2019-05-17T12:14:29.628Z,35.12
2019-05-17T12:18:35.368Z,35.09
2019-05-17T12:22:41.839Z,34.68
2019-05-17T12:26:47.683Z,32.60
2019-05-17T12:30:53.410Z,34.02
2019-05-17T12:34:59.082Z,35.18
2019-05-17T12:39:06.777Z,34.12
2019-05-17T12:43:12.517Z,32.90
2019-05-17T12:47:18.246Z,30.61
2019-05-17T12:51:23.937Z,29.60
2019-05-17T12:55:29.672Z,27.77
2019-05-17T12:59:36.331Z,28.56
2019-05-17T13:03:42.006Z,28.96
2019-05-17T13:07:47.977Z,29.10
2019-05-17T13:11:53.647Z,27.39
2019-05-17T13:15:59.419Z,29.08
2019-05-17T13:20:10.268Z,30.89
2019-05-17T13:24:16.027Z,31.77
2019-05-17T13:28:21.702Z,31.17
2019-05-17T13:32:27.453Z,31.76
2019-05-17T13:36:33.204Z,31.64
2019-05-17T13:40:40.062Z,31.67
2019-05-17T13:44:46.065Z,31.70
2019-05-17T13:48:51.754Z,30.08
2019-05-17T13:52:57.469Z,28.66
2019-05-17T13:57:03.196Z,27.09
2019-05-17T14:01:08.928Z,26.36
2019-05-17T14:05:15.690Z,25.93
2019-05-17T14:09:21.368Z,26.30
2019-05-17T14:13:27.060Z,25.56
2019-05-17T14:17:32.742Z,25.34
2019-05-17T14:21:38.443Z,25.36
2019-05-17T14:25:44.102Z,25.17
2019-05-17T14:29:49.806Z,25.31
2019-05-17T14:33:55.507Z,25.51
2019-05-17T14:38:01.182Z,25.84
2019-05-17T14:46:04.617Z,25.88
2019-05-17T14:50:10.904Z,25.67
2019-05-17T14:54:16.591Z,24.66
2019-05-17T14:58:22.287Z,23.21
2019-05-17T15:02:28.062Z,22.47
2019-05-17T15:06:34.074Z,22.85
2019-05-17T15:10:39.813Z,23.32
2019-05-17T15:14:45.611Z,23.09
2019-05-17T15:18:51.328Z,22.50
2019-05-17T15:22:57.200Z,22.31
2019-05-17T15:27:05.783Z,21.14
2019-05-17T15:31:10.264Z,20.49
2019-05-17T15:35:15.990Z,20.40
2019-05-17T15:39:21.748Z,19.98
2019-05-17T15:43:27.418Z,19.95
2019-05-17T15:47:33.122Z,19.77
2019-05-17T15:51:38.799Z,19.66
2019-05-17T15:55:44.464Z,19.72
2019-05-17T15:59:50.168Z,19.58
2019-05-17T16:03:55.913Z,19.36
2019-05-17T16:08:01.575Z,19.49
2019-05-17T16:12:07.328Z,19.54
2019-05-17T16:16:13.004Z,19.52
2019-05-17T16:20:19.051Z,19.38
2019-05-17T16:24:24.781Z,19.74
2019-05-17T16:28:30.516Z,19.92
2019-05-17T16:32:36.161Z,20.33
2019-05-17T16:36:41.819Z,20.49
2019-05-17T16:40:47.519Z,20.49
2019-05-17T16:44:53.273Z,20.43
2019-05-17T16:48:58.941Z,20.12
2019-05-17T16:53:06.546Z,19.93
2019-05-17T16:57:12.435Z,19.75
2019-05-17T17:01:18.267Z,19.71
2019-05-17T17:05:24.138Z,19.67
2019-05-17T17:09:29.882Z,19.52
2019-05-17T17:13:35.644Z,19.71
2019-05-17T17:17:41.318Z,19.87
2019-05-17T17:21:47.029Z,19.92
2019-05-17T17:25:52.686Z,19.94
2019-05-17T17:29:58.353Z,19.95
2019-05-17T17:34:04.235Z,19.91
2019-05-17T17:38:10.547Z,19.85
2019-05-17T17:42:16.219Z,19.89
2019-05-17T17:46:22.370Z,19.92
2019-05-17T17:50:28.071Z,19.96
2019-05-17T17:54:33.845Z,20.00
2019-05-17T17:58:39.514Z,19.87
2019-05-17T18:02:45.316Z,19.81
2019-05-17T18:06:51.014Z,19.67
2019-05-17T18:10:56.715Z,19.65
2019-05-17T18:15:05.930Z,19.61
2019-05-17T18:19:10.386Z,19.48
2019-05-17T18:23:20.932Z,19.35
2019-05-17T18:27:23.787Z,19.22
2019-05-17T18:31:29.584Z,19.12
2019-05-17T18:35:36.338Z,19.34
2019-05-17T18:39:42.031Z,19.42
2019-05-17T18:43:47.729Z,19.48
2019-05-17T18:47:53.559Z,19.47
2019-05-17T18:51:59.418Z,19.40
2019-05-17T18:56:05.108Z,19.30
2019-05-17T19:00:11.555Z,19.26
2019-05-17T19:04:17.246Z,19.25
2019-05-17T19:08:22.953Z,19.13
2019-05-17T19:12:28.638Z,19.06
2019-05-17T19:16:34.346Z,18.96
2019-05-17T19:20:40.195Z,18.91
2019-05-17T19:24:45.894Z,18.89
2019-05-17T19:28:51.573Z,18.76
2019-05-17T19:32:58.250Z,18.67
2019-05-17T19:37:04.010Z,18.74
2019-05-17T19:41:10.692Z,18.66
2019-05-17T19:45:16.831Z,18.51
2019-05-17T19:49:22.569Z,18.59
2019-05-17T19:53:28.254Z,18.66
2019-05-17T19:57:33.986Z,18.41
2019-05-17T20:01:39.726Z,17.93
2019-05-17T20:05:45.424Z,17.48
2019-05-17T20:09:51.087Z,17.66
2019-05-17T20:13:56.770Z,17.84
2019-05-17T20:18:03.620Z,18.16
2019-05-17T20:22:10.076Z,18.31
2019-05-17T20:26:15.797Z,18.34
2019-05-17T20:30:21.805Z,18.22
2019-05-17T20:34:27.473Z,18.31
2019-05-17T20:38:33.303Z,18.28
2019-05-17T20:42:38.973Z,18.29
2019-05-17T20:46:44.651Z,18.25
2019-05-17T20:50:50.370Z,18.30
2019-05-17T20:54:56.033Z,18.21
2019-05-17T20:59:01.717Z,17.95
2019-05-17T21:03:07.395Z,18.10
2019-05-17T21:07:13.090Z,18.27
2019-05-17T21:11:18.819Z,18.33
2019-05-17T21:15:24.536Z,18.02
2019-05-17T21:19:30.198Z,17.90
2019-05-17T21:23:35.895Z,17.71
2019-05-17T21:27:41.923Z,17.10
2019-05-17T21:31:47.580Z,17.22
2019-05-17T21:35:53.402Z,17.51
2019-05-17T21:40:00.060Z,17.67
2019-05-17T21:44:05.944Z,17.55
2019-05-17T21:48:11.638Z,17.63
2019-05-17T21:52:17.309Z,17.45
2019-05-17T21:56:23.034Z,17.48
2019-05-17T22:00:54.305Z,17.57
2019-05-17T22:05:00.056Z,17.58
2019-05-17T22:09:08.054Z,17.55
2019-05-17T22:13:13.732Z,17.63
2019-05-17T22:17:19.409Z,17.66
2019-05-17T22:21:25.118Z,17.60
2019-05-17T22:25:30.822Z,17.46
2019-05-17T22:29:36.513Z,17.43
2019-05-17T22:33:42.228Z,17.47
2019-05-17T22:37:47.982Z,17.56
2019-05-17T22:41:53.658Z,17.60
2019-05-17T22:45:59.383Z,17.57
2019-05-17T22:50:06.382Z,17.39
2019-05-17T22:54:12.049Z,17.23
2019-05-17T22:58:17.740Z,17.14
2019-05-17T23:02:23.442Z,17.08
2019-05-17T23:06:29.109Z,17.04
2019-05-17T23:10:35.235Z,17.08
2019-05-17T23:14:40.976Z,16.94
2019-05-17T23:19:05.824Z,16.94
2019-05-17T23:23:11.531Z,17.11
2019-05-17T23:27:17.208Z,17.16
2019-05-17T23:31:23.086Z,16.99
2019-05-17T23:35:28.764Z,17.02
2019-05-17T23:39:34.518Z,16.99
2019-05-17T23:43:40.219Z,16.96
2019-05-17T23:47:45.900Z,17.08
2019-05-17T23:51:51.614Z,17.20
2019-05-17T23:55:57.284Z,17.12
